sensor_id;sensor_type;location;lat;lon;timestamp;temperature;humidity
2625;DHT22;1322;53.256;10.386;2023-12-07T00:00:37;4.00;99.90
2625;DHT22;1322;53.256;10.386;2023-12-07T00:03:02;4.00;99.90
2625;DHT22;1322;53.256;10.386;2023-12-07T00:05:28;4.10;99.90
2625;DHT22;1322;53.256;10.386;2023-12-07T00:07:54;4.10;99.90
2625;DHT22;1322;53.256;10.386;2023-12-07T00:10:20;4.00;99.90
2625;DHT22;1322;53.256;10.386;2023-12-07T00:12:45;4.10;99.90
2625;DHT22;1322;53.256;10.386;2023-12-07T00:15:11;4.10;99.90
2625;DHT22;1322;53.256;10.386;2023-12-07T00:17:36;4.10;99.90
2625;DHT22;1322;53.256;10.386;2023-12-07T00:20:03;4.10;99.90
2625;DHT22;1322;53.256;10.386;2023-12-07T00:22:32;4.10;99.90
2625;DHT22;1322;53.256;10.386;2023-12-07T00:24:57;4.10;99.90
2625;DHT22;1322;53.256;10.386;2023-12-07T00:27:23;4.10;99.90
2625;DHT22;1322;53.256;10.386;2023-12-07T00:29:49;4.10;99.90
2625;DHT22;1322;53.256;10.386;2023-12-07T00:32:15;4.10;99.90
2625;DHT22;1322;53.256;10.386;2023-12-07T00:34:41;4.10;99.90
2625;DHT22;1322;53.256;10.386;2023-12-07T00:37:06;4.10;99.90
2625;DHT22;1322;53.256;10.386;2023-12-07T00:39:32;4.10;99.90
2625;DHT22;1322;53.256;10.386;2023-12-07T00:41:58;4.10;99.90
2625;DHT22;1322;53.256;10.386;2023-12-07T00:44:24;4.10;99.90
2625;DHT22;1322;53.256;10.386;2023-12-07T00:46:50;4.10;99.90
2625;DHT22;1322;53.256;10.386;2023-12-07T00:49:16;4.10;99.90
2625;DHT22;1322;53.256;10.386;2023-12-07T00:51:41;4.10;99.90
2625;DHT22;1322;53.256;10.386;2023-12-07T00:54:07;4.20;99.90
2625;DHT22;1322;53.256;10.386;2023-12-07T00:56:33;4.20;99.90
2625;DHT22;1322;53.256;10.386;2023-12-07T00:58:58;4.10;99.90
2625;DHT22;1322;53.256;10.386;2023-12-07T01:01:24;4.20;99.90
2625;DHT22;1322;53.256;10.386;2023-12-07T01:03:49;4.20;99.90
2625;DHT22;1322;53.256;10.386;2023-12-07T01:06:15;4.20;99.90
2625;DHT22;1322;53.256;10.386;2023-12-07T01:08:42;4.20;99.90
2625;DHT22;1322;53.256;10.386;2023-12-07T01:11:08;4.20;99.90
2625;DHT22;1322;53.256;10.386;2023-12-07T01:13:34;4.20;99.90
2625;DHT22;1322;53.256;10.386;2023-12-07T01:16:01;4.20;99.90
2625;DHT22;1322;53.256;10.386;2023-12-07T01:18:27;4.10;99.90
2625;DHT22;1322;53.256;10.386;2023-12-07T01:20:52;4.20;99.90
2625;DHT22;1322;53.256;10.386;2023-12-07T01:23:18;4.20;99.90
2625;DHT22;1322;53.256;10.386;2023-12-07T01:25:43;4.20;99.90
2625;DHT22;1322;53.256;10.386;2023-12-07T01:28:09;4.20;99.90
2625;DHT22;1322;53.256;10.386;2023-12-07T01:30:35;4.20;99.90
2625;DHT22;1322;53.256;10.386;2023-12-07T01:33:01;4.20;99.90
2625;DHT22;1322;53.256;10.386;2023-12-07T01:35:27;4.20;99.90
2625;DHT22;1322;53.256;10.386;2023-12-07T01:37:54;4.20;99.90
2625;DHT22;1322;53.256;10.386;2023-12-07T01:40:19;4.10;99.90
2625;DHT22;1322;53.256;10.386;2023-12-07T01:42:52;4.10;99.90
2625;DHT22;1322;53.256;10.386;2023-12-07T01:45:18;4.10;99.90
2625;DHT22;1322;53.256;10.386;2023-12-07T01:47:44;4.10;99.90
2625;DHT22;1322;53.256;10.386;2023-12-07T01:50:12;4.10;99.90
2625;DHT22;1322;53.256;10.386;2023-12-07T01:52:44;4.10;99.90
2625;DHT22;1322;53.256;10.386;2023-12-07T01:55:11;4.10;99.90
2625;DHT22;1322;53.256;10.386;2023-12-07T01:57:38;4.10;99.90
2625;DHT22;1322;53.256;10.386;2023-12-07T02:00:04;4.10;99.90
2625;DHT22;1322;53.256;10.386;2023-12-07T02:02:30;4.20;99.90
2625;DHT22;1322;53.256;10.386;2023-12-07T02:04:56;4.20;99.90
2625;DHT22;1322;53.256;10.386;2023-12-07T02:07:23;4.20;99.90
2625;DHT22;1322;53.256;10.386;2023-12-07T02:09:49;4.20;99.90
2625;DHT22;1322;53.256;10.386;2023-12-07T02:12:15;4.20;99.90
2625;DHT22;1322;53.256;10.386;2023-12-07T02:14:41;4.20;99.90
2625;DHT22;1322;53.256;10.386;2023-12-07T02:17:27;4.20;99.90
2625;DHT22;1322;53.256;10.386;2023-12-07T02:19:59;4.20;99.90
2625;DHT22;1322;53.256;10.386;2023-12-07T02:22:32;4.20;99.90
2625;DHT22;1322;53.256;10.386;2023-12-07T02:25:11;4.10;99.90
2625;DHT22;1322;53.256;10.386;2023-12-07T02:27:43;4.10;99.90
2625;DHT22;1322;53.256;10.386;2023-12-07T02:30:10;4.10;99.90
2625;DHT22;1322;53.256;10.386;2023-12-07T02:32:37;4.10;99.90
2625;DHT22;1322;53.256;10.386;2023-12-07T02:35:04;4.10;99.90
2625;DHT22;1322;53.256;10.386;2023-12-07T02:37:37;4.20;99.90
2625;DHT22;1322;53.256;10.386;2023-12-07T02:40:07;4.20;99.90
2625;DHT22;1322;53.256;10.386;2023-12-07T02:42:40;4.20;99.90
2625;DHT22;1322;53.256;10.386;2023-12-07T02:45:08;4.20;99.90
2625;DHT22;1322;53.256;10.386;2023-12-07T02:47:35;4.20;99.90
2625;DHT22;1322;53.256;10.386;2023-12-07T02:50:00;4.20;99.90
2625;DHT22;1322;53.256;10.386;2023-12-07T02:52:26;4.20;99.90
2625;DHT22;1322;53.256;10.386;2023-12-07T02:54:52;4.20;99.90
2625;DHT22;1322;53.256;10.386;2023-12-07T02:57:17;4.20;99.90
2625;DHT22;1322;53.256;10.386;2023-12-07T02:59:43;4.20;99.90
2625;DHT22;1322;53.256;10.386;2023-12-07T03:02:08;4.20;99.90
2625;DHT22;1322;53.256;10.386;2023-12-07T03:04:34;4.20;99.90
2625;DHT22;1322;53.256;10.386;2023-12-07T03:06:59;4.30;99.90
2625;DHT22;1322;53.256;10.386;2023-12-07T03:09:25;4.30;99.90
2625;DHT22;1322;53.256;10.386;2023-12-07T03:11:51;4.30;99.90
2625;DHT22;1322;53.256;10.386;2023-12-07T03:14:16;4.20;99.90
2625;DHT22;1322;53.256;10.386;2023-12-07T03:16:42;4.20;99.90
2625;DHT22;1322;53.256;10.386;2023-12-07T03:19:08;4.20;99.90
2625;DHT22;1322;53.256;10.386;2023-12-07T03:21:33;4.10;99.90
2625;DHT22;1322;53.256;10.386;2023-12-07T03:23:59;4.10;99.90
2625;DHT22;1322;53.256;10.386;2023-12-07T03:26:24;4.10;99.90
2625;DHT22;1322;53.256;10.386;2023-12-07T03:28:50;4.00;99.90
2625;DHT22;1322;53.256;10.386;2023-12-07T03:31:16;4.00;99.90
2625;DHT22;1322;53.256;10.386;2023-12-07T03:33:42;4.10;99.90
2625;DHT22;1322;53.256;10.386;2023-12-07T03:36:11;4.10;99.90
2625;DHT22;1322;53.256;10.386;2023-12-07T03:38:37;4.60;99.90
2625;DHT22;1322;53.256;10.386;2023-12-07T03:41:02;4.80;99.90
2625;DHT22;1322;53.256;10.386;2023-12-07T03:43:29;4.10;99.90
2625;DHT22;1322;53.256;10.386;2023-12-07T03:45:55;4.00;99.90
2625;DHT22;1322;53.256;10.386;2023-12-07T03:48:20;4.00;99.90
2625;DHT22;1322;53.256;10.386;2023-12-07T03:50:46;4.00;99.90
2625;DHT22;1322;53.256;10.386;2023-12-07T03:53:12;4.00;99.90
2625;DHT22;1322;53.256;10.386;2023-12-07T03:55:38;4.00;99.90
2625;DHT22;1322;53.256;10.386;2023-12-07T03:58:04;4.00;99.90
2625;DHT22;1322;53.256;10.386;2023-12-07T04:00:31;4.00;99.90
2625;DHT22;1322;53.256;10.386;2023-12-07T04:02:57;4.10;99.90
2625;DHT22;1322;53.256;10.386;2023-12-07T04:05:23;4.10;99.90
2625;DHT22;1322;53.256;10.386;2023-12-07T04:07:49;4.10;99.90
2625;DHT22;1322;53.256;10.386;2023-12-07T04:10:14;4.10;99.90
2625;DHT22;1322;53.256;10.386;2023-12-07T04:12:40;4.10;99.90
2625;DHT22;1322;53.256;10.386;2023-12-07T04:15:06;4.10;99.90
2625;DHT22;1322;53.256;10.386;2023-12-07T04:17:32;4.10;99.90
2625;DHT22;1322;53.256;10.386;2023-12-07T04:19:58;4.10;99.90
2625;DHT22;1322;53.256;10.386;2023-12-07T04:22:23;4.20;99.90
2625;DHT22;1322;53.256;10.386;2023-12-07T04:24:49;4.20;99.90
2625;DHT22;1322;53.256;10.386;2023-12-07T04:27:15;4.20;99.90
2625;DHT22;1322;53.256;10.386;2023-12-07T04:29:40;4.20;99.90
2625;DHT22;1322;53.256;10.386;2023-12-07T04:32:07;4.20;99.90
2625;DHT22;1322;53.256;10.386;2023-12-07T04:34:33;4.30;99.90
2625;DHT22;1322;53.256;10.386;2023-12-07T04:36:58;4.30;99.90
2625;DHT22;1322;53.256;10.386;2023-12-07T04:39:24;4.30;99.90
2625;DHT22;1322;53.256;10.386;2023-12-07T04:41:50;4.30;99.90
2625;DHT22;1322;53.256;10.386;2023-12-07T04:44:16;4.30;99.90
2625;DHT22;1322;53.256;10.386;2023-12-07T04:46:42;4.30;99.90
2625;DHT22;1322;53.256;10.386;2023-12-07T04:49:08;4.30;99.90
2625;DHT22;1322;53.256;10.386;2023-12-07T04:51:34;4.30;99.90
2625;DHT22;1322;53.256;10.386;2023-12-07T04:53:59;4.30;99.90
2625;DHT22;1322;53.256;10.386;2023-12-07T04:56:25;4.30;99.90
2625;DHT22;1322;53.256;10.386;2023-12-07T04:58:51;4.30;99.90
2625;DHT22;1322;53.256;10.386;2023-12-07T05:01:17;4.30;99.90
2625;DHT22;1322;53.256;10.386;2023-12-07T05:03:44;4.30;99.90
2625;DHT22;1322;53.256;10.386;2023-12-07T05:06:10;4.30;99.90
2625;DHT22;1322;53.256;10.386;2023-12-07T05:08:36;4.40;99.90
2625;DHT22;1322;53.256;10.386;2023-12-07T05:11:01;4.30;99.90
2625;DHT22;1322;53.256;10.386;2023-12-07T05:13:27;4.30;99.90
2625;DHT22;1322;53.256;10.386;2023-12-07T05:15:53;4.40;99.90
2625;DHT22;1322;53.256;10.386;2023-12-07T05:18:18;4.40;99.90
2625;DHT22;1322;53.256;10.386;2023-12-07T05:20:44;4.30;99.90
2625;DHT22;1322;53.256;10.386;2023-12-07T05:23:09;4.30;99.90
2625;DHT22;1322;53.256;10.386;2023-12-07T05:25:35;4.30;99.90
2625;DHT22;1322;53.256;10.386;2023-12-07T05:28:01;4.40;99.90
2625;DHT22;1322;53.256;10.386;2023-12-07T05:30:26;4.40;99.90
2625;DHT22;1322;53.256;10.386;2023-12-07T05:32:53;4.40;99.90
2625;DHT22;1322;53.256;10.386;2023-12-07T05:35:19;4.40;99.90
2625;DHT22;1322;53.256;10.386;2023-12-07T05:37:44;4.40;99.90
2625;DHT22;1322;53.256;10.386;2023-12-07T05:40:10;4.40;99.90
2625;DHT22;1322;53.256;10.386;2023-12-07T05:42:37;4.40;99.90
2625;DHT22;1322;53.256;10.386;2023-12-07T05:45:03;4.40;99.90
2625;DHT22;1322;53.256;10.386;2023-12-07T05:47:30;4.40;99.90
2625;DHT22;1322;53.256;10.386;2023-12-07T05:49:55;4.40;99.90
2625;DHT22;1322;53.256;10.386;2023-12-07T05:52:23;4.40;99.90
2625;DHT22;1322;53.256;10.386;2023-12-07T05:54:49;4.40;99.90
2625;DHT22;1322;53.256;10.386;2023-12-07T05:57:14;4.30;99.90
2625;DHT22;1322;53.256;10.386;2023-12-07T05:59:40;4.30;99.90
2625;DHT22;1322;53.256;10.386;2023-12-07T06:02:07;4.30;99.90
2625;DHT22;1322;53.256;10.386;2023-12-07T06:04:33;4.40;99.90
2625;DHT22;1322;53.256;10.386;2023-12-07T06:06:58;4.40;99.90
2625;DHT22;1322;53.256;10.386;2023-12-07T06:09:24;4.40;99.90
2625;DHT22;1322;53.256;10.386;2023-12-07T06:11:50;4.40;99.90
2625;DHT22;1322;53.256;10.386;2023-12-07T06:14:16;4.40;99.90
2625;DHT22;1322;53.256;10.386;2023-12-07T06:16:41;4.40;99.90
2625;DHT22;1322;53.256;10.386;2023-12-07T06:19:07;4.50;99.90
2625;DHT22;1322;53.256;10.386;2023-12-07T06:21:33;4.40;99.90
2625;DHT22;1322;53.256;10.386;2023-12-07T06:23:59;4.40;99.90
2625;DHT22;1322;53.256;10.386;2023-12-07T06:26:25;4.40;99.90
2625;DHT22;1322;53.256;10.386;2023-12-07T06:28:50;4.50;99.90
2625;DHT22;1322;53.256;10.386;2023-12-07T06:31:16;4.40;99.90
2625;DHT22;1322;53.256;10.386;2023-12-07T06:33:45;4.40;99.90
2625;DHT22;1322;53.256;10.386;2023-12-07T06:36:17;4.40;99.90
2625;DHT22;1322;53.256;10.386;2023-12-07T06:38:42;4.50;99.90
2625;DHT22;1322;53.256;10.386;2023-12-07T06:41:08;4.50;99.90
2625;DHT22;1322;53.256;10.386;2023-12-07T06:43:34;4.50;99.90
2625;DHT22;1322;53.256;10.386;2023-12-07T06:45:59;4.50;99.90
2625;DHT22;1322;53.256;10.386;2023-12-07T06:48:25;4.50;99.90
2625;DHT22;1322;53.256;10.386;2023-12-07T06:50:50;4.40;99.90
2625;DHT22;1322;53.256;10.386;2023-12-07T06:53:16;4.40;99.90
2625;DHT22;1322;53.256;10.386;2023-12-07T06:55:43;4.40;99.90
2625;DHT22;1322;53.256;10.386;2023-12-07T06:58:09;4.50;99.90
2625;DHT22;1322;53.256;10.386;2023-12-07T07:00:35;4.50;99.90
2625;DHT22;1322;53.256;10.386;2023-12-07T07:03:01;4.50;99.90
2625;DHT22;1322;53.256;10.386;2023-12-07T07:05:27;4.50;99.90
2625;DHT22;1322;53.256;10.386;2023-12-07T07:07:53;4.50;99.90
2625;DHT22;1322;53.256;10.386;2023-12-07T07:10:21;4.50;99.90
2625;DHT22;1322;53.256;10.386;2023-12-07T07:12:46;4.40;99.90
2625;DHT22;1322;53.256;10.386;2023-12-07T07:15:12;4.50;99.90
2625;DHT22;1322;53.256;10.386;2023-12-07T07:17:38;4.40;99.90
2625;DHT22;1322;53.256;10.386;2023-12-07T07:20:04;4.40;99.90
2625;DHT22;1322;53.256;10.386;2023-12-07T07:22:30;4.50;99.90
2625;DHT22;1322;53.256;10.386;2023-12-07T07:24:55;4.50;99.90
2625;DHT22;1322;53.256;10.386;2023-12-07T07:27:21;4.50;99.90
2625;DHT22;1322;53.256;10.386;2023-12-07T07:29:47;4.40;99.90
2625;DHT22;1322;53.256;10.386;2023-12-07T07:32:13;4.40;99.90
2625;DHT22;1322;53.256;10.386;2023-12-07T07:34:38;4.50;99.90
2625;DHT22;1322;53.256;10.386;2023-12-07T07:37:05;4.50;99.90
2625;DHT22;1322;53.256;10.386;2023-12-07T07:39:32;4.50;99.90
2625;DHT22;1322;53.256;10.386;2023-12-07T07:41:57;4.60;99.90
2625;DHT22;1322;53.256;10.386;2023-12-07T07:44:23;4.60;99.90
2625;DHT22;1322;53.256;10.386;2023-12-07T07:46:49;4.60;99.90
2625;DHT22;1322;53.256;10.386;2023-12-07T07:49:14;4.70;99.90
2625;DHT22;1322;53.256;10.386;2023-12-07T07:51:40;4.70;99.90
2625;DHT22;1322;53.256;10.386;2023-12-07T07:54:06;4.70;99.90
2625;DHT22;1322;53.256;10.386;2023-12-07T07:56:31;4.70;99.90
2625;DHT22;1322;53.256;10.386;2023-12-07T07:58:57;4.70;99.90
2625;DHT22;1322;53.256;10.386;2023-12-07T08:01:25;4.70;99.90
2625;DHT22;1322;53.256;10.386;2023-12-07T08:03:51;4.70;99.90
2625;DHT22;1322;53.256;10.386;2023-12-07T08:06:17;4.70;99.90
2625;DHT22;1322;53.256;10.386;2023-12-07T08:08:43;4.70;99.90
2625;DHT22;1322;53.256;10.386;2023-12-07T08:11:08;4.70;99.90
2625;DHT22;1322;53.256;10.386;2023-12-07T08:13:34;4.80;99.90
2625;DHT22;1322;53.256;10.386;2023-12-07T08:16:01;4.80;99.90
2625;DHT22;1322;53.256;10.386;2023-12-07T08:18:26;4.90;99.90
2625;DHT22;1322;53.256;10.386;2023-12-07T08:20:52;4.90;99.90
2625;DHT22;1322;53.256;10.386;2023-12-07T08:23:17;4.90;99.90
2625;DHT22;1322;53.256;10.386;2023-12-07T08:25:43;4.90;99.90
2625;DHT22;1322;53.256;10.386;2023-12-07T08:28:09;5.00;99.90
2625;DHT22;1322;53.256;10.386;2023-12-07T08:30:35;5.00;99.90
2625;DHT22;1322;53.256;10.386;2023-12-07T08:33:01;5.00;99.90
2625;DHT22;1322;53.256;10.386;2023-12-07T08:35:27;5.00;99.90
2625;DHT22;1322;53.256;10.386;2023-12-07T08:37:53;4.90;99.90
2625;DHT22;1322;53.256;10.386;2023-12-07T08:40:18;5.00;99.90
2625;DHT22;1322;53.256;10.386;2023-12-07T08:42:45;5.10;99.90
2625;DHT22;1322;53.256;10.386;2023-12-07T08:45:11;5.20;99.90
2625;DHT22;1322;53.256;10.386;2023-12-07T08:47:39;5.50;99.90
2625;DHT22;1322;53.256;10.386;2023-12-07T08:50:05;5.20;99.90
2625;DHT22;1322;53.256;10.386;2023-12-07T08:52:33;5.20;99.90
2625;DHT22;1322;53.256;10.386;2023-12-07T08:54:58;5.20;99.90
2625;DHT22;1322;53.256;10.386;2023-12-07T08:57:24;5.30;99.90
2625;DHT22;1322;53.256;10.386;2023-12-07T08:59:50;5.10;99.90
2625;DHT22;1322;53.256;10.386;2023-12-07T09:02:15;5.10;99.90
2625;DHT22;1322;53.256;10.386;2023-12-07T09:04:41;5.10;99.90
2625;DHT22;1322;53.256;10.386;2023-12-07T09:07:06;5.30;99.90
2625;DHT22;1322;53.256;10.386;2023-12-07T09:09:32;5.10;99.90
2625;DHT22;1322;53.256;10.386;2023-12-07T09:11:58;5.10;99.90
2625;DHT22;1322;53.256;10.386;2023-12-07T09:14:23;5.10;99.90
2625;DHT22;1322;53.256;10.386;2023-12-07T09:16:49;5.20;99.90
2625;DHT22;1322;53.256;10.386;2023-12-07T09:19:15;5.20;99.90
2625;DHT22;1322;53.256;10.386;2023-12-07T09:21:41;5.00;99.90
2625;DHT22;1322;53.256;10.386;2023-12-07T09:24:07;5.10;99.90
2625;DHT22;1322;53.256;10.386;2023-12-07T09:26:33;4.70;99.90
2625;DHT22;1322;53.256;10.386;2023-12-07T09:28:58;4.90;99.90
2625;DHT22;1322;53.256;10.386;2023-12-07T09:31:24;5.00;99.90
2625;DHT22;1322;53.256;10.386;2023-12-07T09:33:49;5.10;99.90
2625;DHT22;1322;53.256;10.386;2023-12-07T09:36:18;5.20;99.90
2625;DHT22;1322;53.256;10.386;2023-12-07T09:38:44;5.20;99.90
2625;DHT22;1322;53.256;10.386;2023-12-07T09:41:10;5.30;99.90
2625;DHT22;1322;53.256;10.386;2023-12-07T09:43:36;5.40;99.90
2625;DHT22;1322;53.256;10.386;2023-12-07T09:46:02;5.50;99.90
2625;DHT22;1322;53.256;10.386;2023-12-07T09:48:29;5.50;99.90
2625;DHT22;1322;53.256;10.386;2023-12-07T09:50:56;5.50;99.90
2625;DHT22;1322;53.256;10.386;2023-12-07T09:53:22;5.60;99.90
2625;DHT22;1322;53.256;10.386;2023-12-07T09:55:48;5.60;99.90
2625;DHT22;1322;53.256;10.386;2023-12-07T09:58:14;5.70;99.90
2625;DHT22;1322;53.256;10.386;2023-12-07T10:00:39;5.70;99.90
2625;DHT22;1322;53.256;10.386;2023-12-07T10:03:06;5.80;99.90
2625;DHT22;1322;53.256;10.386;2023-12-07T10:05:46;5.80;99.90
2625;DHT22;1322;53.256;10.386;2023-12-07T10:08:26;5.80;99.90
2625;DHT22;1322;53.256;10.386;2023-12-07T10:11:05;5.80;99.90
2625;DHT22;1322;53.256;10.386;2023-12-07T10:13:34;5.80;99.90
2625;DHT22;1322;53.256;10.386;2023-12-07T10:16:13;5.90;99.90
2625;DHT22;1322;53.256;10.386;2023-12-07T10:18:40;6.00;99.90
2625;DHT22;1322;53.256;10.386;2023-12-07T10:21:07;6.00;99.90
2625;DHT22;1322;53.256;10.386;2023-12-07T10:23:33;6.10;99.90
2625;DHT22;1322;53.256;10.386;2023-12-07T10:25:59;6.10;99.90
2625;DHT22;1322;53.256;10.386;2023-12-07T10:28:25;6.20;99.90
2625;DHT22;1322;53.256;10.386;2023-12-07T10:30:51;6.10;99.90
2625;DHT22;1322;53.256;10.386;2023-12-07T10:33:19;6.10;99.90
2625;DHT22;1322;53.256;10.386;2023-12-07T10:35:46;6.20;99.90
2625;DHT22;1322;53.256;10.386;2023-12-07T10:38:12;6.20;99.90
2625;DHT22;1322;53.256;10.386;2023-12-07T10:40:38;6.30;99.90
2625;DHT22;1322;53.256;10.386;2023-12-07T10:43:07;6.30;99.90
2625;DHT22;1322;53.256;10.386;2023-12-07T10:45:34;6.30;99.90
2625;DHT22;1322;53.256;10.386;2023-12-07T10:48:09;6.20;99.90
2625;DHT22;1322;53.256;10.386;2023-12-07T10:50:37;6.20;99.90
2625;DHT22;1322;53.256;10.386;2023-12-07T10:53:19;6.20;99.90
2625;DHT22;1322;53.256;10.386;2023-12-07T10:55:59;6.20;99.90
2625;DHT22;1322;53.256;10.386;2023-12-07T10:58:25;6.20;99.90
2625;DHT22;1322;53.256;10.386;2023-12-07T11:00:55;6.80;99.90
2625;DHT22;1322;53.256;10.386;2023-12-07T11:03:22;6.70;99.90
2625;DHT22;1322;53.256;10.386;2023-12-07T11:05:49;6.10;99.90
2625;DHT22;1322;53.256;10.386;2023-12-07T11:14:07;6.10;99.90
2625;DHT22;1322;53.256;10.386;2023-12-07T11:16:35;6.20;99.90
2625;DHT22;1322;53.256;10.386;2023-12-07T11:19:01;6.20;99.90
2625;DHT22;1322;53.256;10.386;2023-12-07T11:21:27;6.20;99.90
2625;DHT22;1322;53.256;10.386;2023-12-07T11:23:53;6.20;99.90
2625;DHT22;1322;53.256;10.386;2023-12-07T11:26:23;6.30;99.90
2625;DHT22;1322;53.256;10.386;2023-12-07T11:28:50;6.20;99.90
2625;DHT22;1322;53.256;10.386;2023-12-07T11:31:16;6.20;99.90
2625;DHT22;1322;53.256;10.386;2023-12-07T11:33:42;6.20;99.90
2625;DHT22;1322;53.256;10.386;2023-12-07T11:36:10;6.20;99.90
2625;DHT22;1322;53.256;10.386;2023-12-07T11:38:38;6.30;99.90
2625;DHT22;1322;53.256;10.386;2023-12-07T11:41:20;6.30;99.90
2625;DHT22;1322;53.256;10.386;2023-12-07T11:43:46;6.30;99.90
2625;DHT22;1322;53.256;10.386;2023-12-07T11:46:12;6.30;99.90
2625;DHT22;1322;53.256;10.386;2023-12-07T11:48:39;6.40;99.90
2625;DHT22;1322;53.256;10.386;2023-12-07T11:51:06;6.40;99.90
2625;DHT22;1322;53.256;10.386;2023-12-07T11:53:37;6.40;99.90
2625;DHT22;1322;53.256;10.386;2023-12-07T11:56:05;6.30;99.90
2625;DHT22;1322;53.256;10.386;2023-12-07T11:58:33;6.30;99.90
2625;DHT22;1322;53.256;10.386;2023-12-07T12:00:59;6.20;99.90
2625;DHT22;1322;53.256;10.386;2023-12-07T12:03:30;6.10;99.90
2625;DHT22;1322;53.256;10.386;2023-12-07T12:05:57;6.20;99.90
2625;DHT22;1322;53.256;10.386;2023-12-07T12:08:23;6.20;99.90
2625;DHT22;1322;53.256;10.386;2023-12-07T12:10:53;6.30;99.90
2625;DHT22;1322;53.256;10.386;2023-12-07T12:13:26;6.30;99.90
2625;DHT22;1322;53.256;10.386;2023-12-07T12:15:52;6.40;99.90
2625;DHT22;1322;53.256;10.386;2023-12-07T12:18:17;6.40;99.90
2625;DHT22;1322;53.256;10.386;2023-12-07T12:20:45;6.30;99.90
2625;DHT22;1322;53.256;10.386;2023-12-07T12:23:10;6.20;99.90
2625;DHT22;1322;53.256;10.386;2023-12-07T12:25:36;6.10;99.90
2625;DHT22;1322;53.256;10.386;2023-12-07T12:28:03;6.00;99.90
2625;DHT22;1322;53.256;10.386;2023-12-07T12:30:30;6.10;99.90
2625;DHT22;1322;53.256;10.386;2023-12-07T12:32:56;6.20;99.90
2625;DHT22;1322;53.256;10.386;2023-12-07T12:35:22;6.20;99.90
2625;DHT22;1322;53.256;10.386;2023-12-07T12:37:49;6.20;99.90
2625;DHT22;1322;53.256;10.386;2023-12-07T12:40:19;6.30;99.90
2625;DHT22;1322;53.256;10.386;2023-12-07T12:42:46;6.20;99.90
2625;DHT22;1322;53.256;10.386;2023-12-07T12:45:13;6.20;99.90
2625;DHT22;1322;53.256;10.386;2023-12-07T12:47:40;6.20;99.90
2625;DHT22;1322;53.256;10.386;2023-12-07T12:50:07;6.20;99.90
2625;DHT22;1322;53.256;10.386;2023-12-07T12:52:33;6.20;99.90
2625;DHT22;1322;53.256;10.386;2023-12-07T12:54:59;6.20;99.90
2625;DHT22;1322;53.256;10.386;2023-12-07T12:57:25;6.30;99.90
2625;DHT22;1322;53.256;10.386;2023-12-07T12:59:53;6.30;99.90
2625;DHT22;1322;53.256;10.386;2023-12-07T13:02:20;6.30;99.90
2625;DHT22;1322;53.256;10.386;2023-12-07T13:04:46;6.20;99.90
2625;DHT22;1322;53.256;10.386;2023-12-07T13:07:12;6.30;99.90
2625;DHT22;1322;53.256;10.386;2023-12-07T13:09:41;6.20;99.90
2625;DHT22;1322;53.256;10.386;2023-12-07T13:12:09;6.30;99.90
2625;DHT22;1322;53.256;10.386;2023-12-07T13:14:35;6.20;99.90
2625;DHT22;1322;53.256;10.386;2023-12-07T13:17:01;6.30;99.90
2625;DHT22;1322;53.256;10.386;2023-12-07T13:19:28;6.10;99.90
2625;DHT22;1322;53.256;10.386;2023-12-07T13:21:53;6.20;99.90
2625;DHT22;1322;53.256;10.386;2023-12-07T13:24:19;6.10;99.90
2625;DHT22;1322;53.256;10.386;2023-12-07T13:26:44;6.00;99.90
2625;DHT22;1322;53.256;10.386;2023-12-07T13:29:10;6.00;99.90
2625;DHT22;1322;53.256;10.386;2023-12-07T13:31:36;5.90;99.90
2625;DHT22;1322;53.256;10.386;2023-12-07T13:34:02;5.90;99.90
2625;DHT22;1322;53.256;10.386;2023-12-07T13:36:27;5.70;99.90
2625;DHT22;1322;53.256;10.386;2023-12-07T13:38:55;5.80;99.90
2625;DHT22;1322;53.256;10.386;2023-12-07T13:41:21;5.80;99.90
2625;DHT22;1322;53.256;10.386;2023-12-07T13:43:47;5.80;99.90
2625;DHT22;1322;53.256;10.386;2023-12-07T13:46:19;5.70;99.90
2625;DHT22;1322;53.256;10.386;2023-12-07T13:48:45;5.40;99.90
2625;DHT22;1322;53.256;10.386;2023-12-07T13:51:10;5.40;99.90
2625;DHT22;1322;53.256;10.386;2023-12-07T13:53:36;5.50;99.90
2625;DHT22;1322;53.256;10.386;2023-12-07T13:56:03;5.60;99.90
2625;DHT22;1322;53.256;10.386;2023-12-07T13:58:30;5.40;99.90
2625;DHT22;1322;53.256;10.386;2023-12-07T14:00:55;5.50;99.90
2625;DHT22;1322;53.256;10.386;2023-12-07T14:03:21;5.50;99.90
2625;DHT22;1322;53.256;10.386;2023-12-07T14:05:46;5.40;99.90
2625;DHT22;1322;53.256;10.386;2023-12-07T14:08:13;5.50;99.90
2625;DHT22;1322;53.256;10.386;2023-12-07T14:10:39;5.10;99.90
2625;DHT22;1322;53.256;10.386;2023-12-07T14:13:04;5.10;99.90
2625;DHT22;1322;53.256;10.386;2023-12-07T14:15:30;5.20;99.90
2625;DHT22;1322;53.256;10.386;2023-12-07T14:17:59;5.20;99.90
2625;DHT22;1322;53.256;10.386;2023-12-07T14:20:25;5.20;99.90
2625;DHT22;1322;53.256;10.386;2023-12-07T14:22:56;5.30;99.90
2625;DHT22;1322;53.256;10.386;2023-12-07T14:25:21;5.10;99.90
2625;DHT22;1322;53.256;10.386;2023-12-07T14:27:47;5.10;99.90
2625;DHT22;1322;53.256;10.386;2023-12-07T14:30:14;5.20;99.90
2625;DHT22;1322;53.256;10.386;2023-12-07T14:32:42;5.20;99.90
2625;DHT22;1322;53.256;10.386;2023-12-07T14:35:09;5.10;99.90
2625;DHT22;1322;53.256;10.386;2023-12-07T14:37:35;5.10;99.90
2625;DHT22;1322;53.256;10.386;2023-12-07T14:40:00;4.70;99.90
2625;DHT22;1322;53.256;10.386;2023-12-07T14:42:26;4.80;99.90
2625;DHT22;1322;53.256;10.386;2023-12-07T14:44:52;4.80;99.90
2625;DHT22;1322;53.256;10.386;2023-12-07T14:47:17;4.70;99.90
2625;DHT22;1322;53.256;10.386;2023-12-07T14:49:43;4.60;99.90
2625;DHT22;1322;53.256;10.386;2023-12-07T14:52:09;4.40;99.90
2625;DHT22;1322;53.256;10.386;2023-12-07T14:54:36;4.60;99.90
2625;DHT22;1322;53.256;10.386;2023-12-07T14:57:02;5.40;99.90
2625;DHT22;1322;53.256;10.386;2023-12-07T14:59:29;4.80;99.90
2625;DHT22;1322;53.256;10.386;2023-12-07T15:01:55;4.60;99.90
2625;DHT22;1322;53.256;10.386;2023-12-07T15:04:21;4.60;99.90
2625;DHT22;1322;53.256;10.386;2023-12-07T15:06:46;4.70;99.90
2625;DHT22;1322;53.256;10.386;2023-12-07T15:09:12;4.50;99.90
2625;DHT22;1322;53.256;10.386;2023-12-07T15:11:39;4.60;99.90
2625;DHT22;1322;53.256;10.386;2023-12-07T15:14:05;4.60;99.90
2625;DHT22;1322;53.256;10.386;2023-12-07T15:16:31;4.30;99.90
2625;DHT22;1322;53.256;10.386;2023-12-07T15:18:58;4.10;99.90
2625;DHT22;1322;53.256;10.386;2023-12-07T15:21:23;4.20;99.90
2625;DHT22;1322;53.256;10.386;2023-12-07T15:23:50;4.40;99.90
2625;DHT22;1322;53.256;10.386;2023-12-07T15:26:16;4.70;99.90
2625;DHT22;1322;53.256;10.386;2023-12-07T15:28:42;4.70;99.90
2625;DHT22;1322;53.256;10.386;2023-12-07T15:31:08;4.40;99.90
2625;DHT22;1322;53.256;10.386;2023-12-07T15:33:34;4.40;99.90
2625;DHT22;1322;53.256;10.386;2023-12-07T15:36:01;4.30;99.90
2625;DHT22;1322;53.256;10.386;2023-12-07T15:38:28;4.40;99.90
2625;DHT22;1322;53.256;10.386;2023-12-07T15:40:54;4.30;99.90
2625;DHT22;1322;53.256;10.386;2023-12-07T15:43:23;4.40;99.90
2625;DHT22;1322;53.256;10.386;2023-12-07T15:45:49;4.50;99.90
2625;DHT22;1322;53.256;10.386;2023-12-07T15:48:15;4.70;99.90
2625;DHT22;1322;53.256;10.386;2023-12-07T15:50:40;4.70;99.90
2625;DHT22;1322;53.256;10.386;2023-12-07T15:53:06;4.70;99.90
2625;DHT22;1322;53.256;10.386;2023-12-07T15:55:32;4.80;99.90
2625;DHT22;1322;53.256;10.386;2023-12-07T15:57:58;4.60;99.90
2625;DHT22;1322;53.256;10.386;2023-12-07T16:00:24;4.70;99.90
2625;DHT22;1322;53.256;10.386;2023-12-07T16:02:49;4.70;99.90